Terminal Aerodrome Forecast
Issued by NWS

Home | Current Version | Previous Version | Text Only | Print | Product List | Glossary On
Versions: 1 2 3 4 5 6 7 8 9 10 11 12 13
000
FTUS42 TJSJ 202300
TAFJPS
TAF
TJPS 202337Z 2100/2124 13010KT P6SM VCSH FEW030
     FM210400 05005KT P6SM FEW025
     FM211250 12008KT P6SM FEW030
      AMD NOT SKED TIL 210300=

USA.gov is the U.S. government's official web portal to all federal, state and local government web resources and services.